KAXV/AXV METAR and TAF weather

Enter ICAO airport designator
Station Type Date Time Source
KAXV METAR 2019/12/13 01:36 UTC NOAA

KAXV 130136Z AUTO 16009KT 10SM CLR 01/M03 A3024 RMK AO2


Station Type Date Time Source
KAXV Decoded METAR 2019/12/13 01:36 UTC NOAA

Station name not available
Dec 12, 2019 - 08:36 PM EST / 2019.12.13 0136 UTC
Wind: from the SSE (160 degrees) at 10 MPH (9 KT):0
Visibility: 10 mile(s):0
Sky conditions: clear
Temperature: 33 F (1 C)
Windchill: 24 F (-4 C):1
Dew Point: 26 F (-3 C)
Relative Humidity: 74%
Pressure (altimeter): 30.24 in. Hg (1024 hPa)
ob: KAXV 130136Z AUTO 16009KT 10SM CLR 01/M03 A3024 RMK AO2
cycle: 1

Station Type Date Time Source
KAXV TAF UTC NOAA

Error!

Example: see airport list